sensor_id;sensor_type;location;lat;lon;timestamp;P1;durP1;ratioP1;P2;durP2;ratioP2
66542;SDS011;53395;37.360;-122.046;2024-01-16T00:01:27;8.23;;;3.47;;
66542;SDS011;53395;37.360;-122.046;2024-01-16T00:04:11;7.20;;;3.50;;
66542;SDS011;53395;37.360;-122.046;2024-01-16T00:06:56;5.70;;;3.30;;
66542;SDS011;53395;37.360;-122.046;2024-01-16T00:09:40;7.13;;;3.38;;
66542;SDS011;53395;37.360;-122.046;2024-01-16T00:12:25;7.22;;;3.50;;
66542;SDS011;53395;37.360;-122.046;2024-01-16T00:15:09;6.63;;;3.65;;
66542;SDS011;53395;37.360;-122.046;2024-01-16T00:17:53;6.03;;;3.40;;
66542;SDS011;53395;37.360;-122.046;2024-01-16T00:20:38;5.63;;;3.20;;
66542;SDS011;53395;37.360;-122.046;2024-01-16T00:23:23;5.25;;;3.13;;
66542;SDS011;53395;37.360;-122.046;2024-01-16T00:26:07;7.47;;;3.20;;
66542;SDS011;53395;37.360;-122.046;2024-01-16T00:28:51;5.43;;;2.50;;
66542;SDS011;53395;37.360;-122.046;2024-01-16T00:31:36;6.85;;;2.95;;
66542;SDS011;53395;37.360;-122.046;2024-01-16T00:34:20;6.25;;;2.83;;
66542;SDS011;53395;37.360;-122.046;2024-01-16T00:37:04;4.47;;;2.28;;
66542;SDS011;53395;37.360;-122.046;2024-01-16T00:39:49;5.57;;;2.60;;
66542;SDS011;53395;37.360;-122.046;2024-01-16T00:42:33;4.38;;;2.35;;
66542;SDS011;53395;37.360;-122.046;2024-01-16T00:45:18;4.32;;;1.95;;
66542;SDS011;53395;37.360;-122.046;2024-01-16T00:48:02;4.68;;;2.25;;
66542;SDS011;53395;37.360;-122.046;2024-01-16T00:50:49;4.13;;;2.05;;
66542;SDS011;53395;37.360;-122.046;2024-01-16T00:53:39;5.45;;;1.80;;
66542;SDS011;53395;37.360;-122.046;2024-01-16T00:56:23;4.97;;;2.00;;
66542;SDS011;53395;37.360;-122.046;2024-01-16T00:59:10;6.82;;;2.30;;
66542;SDS011;53395;37.360;-122.046;2024-01-16T01:01:54;6.05;;;2.20;;
66542;SDS011;53395;37.360;-122.046;2024-01-16T01:04:39;5.47;;;2.00;;
66542;SDS011;53395;37.360;-122.046;2024-01-16T01:07:25;5.32;;;2.00;;
66542;SDS011;53395;37.360;-122.046;2024-01-16T01:10:10;6.60;;;2.33;;
66542;SDS011;53395;37.360;-122.046;2024-01-16T01:12:54;4.28;;;2.25;;
66542;SDS011;53395;37.360;-122.046;2024-01-16T01:15:38;6.75;;;1.90;;
66542;SDS011;53395;37.360;-122.046;2024-01-16T01:18:23;6.90;;;2.38;;
66542;SDS011;53395;37.360;-122.046;2024-01-16T01:21:08;3.55;;;1.88;;
66542;SDS011;53395;37.360;-122.046;2024-01-16T01:23:53;5.13;;;1.95;;
66542;SDS011;53395;37.360;-122.046;2024-01-16T01:26:37;9.23;;;2.13;;
66542;SDS011;53395;37.360;-122.046;2024-01-16T01:29:22;4.22;;;2.05;;
66542;SDS011;53395;37.360;-122.046;2024-01-16T01:32:06;5.07;;;1.75;;
66542;SDS011;53395;37.360;-122.046;2024-01-16T01:34:51;5.95;;;1.98;;
66542;SDS011;53395;37.360;-122.046;2024-01-16T01:37:36;3.88;;;2.00;;
66542;SDS011;53395;37.360;-122.046;2024-01-16T01:40:21;7.18;;;2.28;;
66542;SDS011;53395;37.360;-122.046;2024-01-16T01:43:23;5.75;;;2.30;;
66542;SDS011;53395;37.360;-122.046;2024-01-16T01:46:17;4.18;;;2.10;;
66542;SDS011;53395;37.360;-122.046;2024-01-16T01:49:02;4.75;;;1.98;;
66542;SDS011;53395;37.360;-122.046;2024-01-16T01:51:47;4.13;;;2.28;;
66542;SDS011;53395;37.360;-122.046;2024-01-16T01:54:32;5.65;;;2.15;;
66542;SDS011;53395;37.360;-122.046;2024-01-16T01:57:17;5.28;;;2.20;;
66542;SDS011;53395;37.360;-122.046;2024-01-16T02:00:03;4.05;;;1.90;;
66542;SDS011;53395;37.360;-122.046;2024-01-16T02:02:48;5.20;;;2.08;;
66542;SDS011;53395;37.360;-122.046;2024-01-16T02:05:33;5.85;;;2.20;;
66542;SDS011;53395;37.360;-122.046;2024-01-16T02:08:18;5.78;;;2.28;;
66542;SDS011;53395;37.360;-122.046;2024-01-16T02:11:03;4.60;;;2.25;;
66542;SDS011;53395;37.360;-122.046;2024-01-16T02:13:52;6.07;;;2.22;;
66542;SDS011;53395;37.360;-122.046;2024-01-16T02:16:37;6.43;;;2.40;;
66542;SDS011;53395;37.360;-122.046;2024-01-16T02:19:24;5.57;;;2.40;;
66542;SDS011;53395;37.360;-122.046;2024-01-16T02:22:09;4.55;;;2.17;;
66542;SDS011;53395;37.360;-122.046;2024-01-16T02:24:56;7.30;;;2.78;;
66542;SDS011;53395;37.360;-122.046;2024-01-16T02:27:41;5.53;;;2.33;;
66542;SDS011;53395;37.360;-122.046;2024-01-16T02:30:26;7.57;;;2.38;;
66542;SDS011;53395;37.360;-122.046;2024-01-16T02:33:10;6.80;;;2.60;;
66542;SDS011;53395;37.360;-122.046;2024-01-16T02:35:54;5.95;;;2.60;;
66542;SDS011;53395;37.360;-122.046;2024-01-16T02:38:39;5.43;;;2.50;;
66542;SDS011;53395;37.360;-122.046;2024-01-16T02:41:23;5.95;;;2.03;;
66542;SDS011;53395;37.360;-122.046;2024-01-16T02:44:07;8.93;;;2.60;;
66542;SDS011;53395;37.360;-122.046;2024-01-16T02:46:52;6.45;;;2.40;;
66542;SDS011;53395;37.360;-122.046;2024-01-16T02:49:36;6.57;;;2.80;;
66542;SDS011;53395;37.360;-122.046;2024-01-16T02:52:20;6.47;;;3.00;;
66542;SDS011;53395;37.360;-122.046;2024-01-16T02:55:05;7.25;;;3.13;;
66542;SDS011;53395;37.360;-122.046;2024-01-16T02:57:50;6.45;;;2.97;;
66542;SDS011;53395;37.360;-122.046;2024-01-16T03:00:35;6.05;;;2.72;;
66542;SDS011;53395;37.360;-122.046;2024-01-16T03:03:19;5.60;;;2.85;;
66542;SDS011;53395;37.360;-122.046;2024-01-16T03:06:04;6.82;;;2.35;;
66542;SDS011;53395;37.360;-122.046;2024-01-16T03:08:49;6.15;;;2.70;;
66542;SDS011;53395;37.360;-122.046;2024-01-16T03:11:33;5.05;;;2.72;;
66542;SDS011;53395;37.360;-122.046;2024-01-16T03:14:18;6.35;;;2.95;;
66542;SDS011;53395;37.360;-122.046;2024-01-16T03:17:02;6.45;;;3.30;;
66542;SDS011;53395;37.360;-122.046;2024-01-16T03:19:47;10.68;;;3.25;;
66542;SDS011;53395;37.360;-122.046;2024-01-16T03:22:31;9.77;;;3.00;;
66542;SDS011;53395;37.360;-122.046;2024-01-16T03:25:16;6.13;;;3.20;;
66542;SDS011;53395;37.360;-122.046;2024-01-16T03:28:01;6.05;;;3.15;;
66542;SDS011;53395;37.360;-122.046;2024-01-16T03:30:45;10.88;;;3.28;;
66542;SDS011;53395;37.360;-122.046;2024-01-16T03:33:30;5.95;;;3.10;;
66542;SDS011;53395;37.360;-122.046;2024-01-16T03:36:14;5.60;;;3.08;;
66542;SDS011;53395;37.360;-122.046;2024-01-16T03:38:59;6.15;;;3.33;;
66542;SDS011;53395;37.360;-122.046;2024-01-16T03:41:44;8.52;;;3.30;;
66542;SDS011;53395;37.360;-122.046;2024-01-16T03:44:28;7.05;;;3.15;;
66542;SDS011;53395;37.360;-122.046;2024-01-16T03:47:13;7.88;;;3.50;;
66542;SDS011;53395;37.360;-122.046;2024-01-16T03:49:58;5.93;;;3.08;;
66542;SDS011;53395;37.360;-122.046;2024-01-16T03:52:42;11.23;;;2.85;;
66542;SDS011;53395;37.360;-122.046;2024-01-16T03:55:27;5.50;;;3.17;;
66542;SDS011;53395;37.360;-122.046;2024-01-16T03:58:12;7.70;;;3.47;;
66542;SDS011;53395;37.360;-122.046;2024-01-16T04:00:56;7.13;;;3.55;;
66542;SDS011;53395;37.360;-122.046;2024-01-16T04:03:40;7.65;;;3.42;;
66542;SDS011;53395;37.360;-122.046;2024-01-16T04:06:25;6.03;;;3.20;;
66542;SDS011;53395;37.360;-122.046;2024-01-16T04:09:10;9.88;;;3.80;;
66542;SDS011;53395;37.360;-122.046;2024-01-16T04:11:54;10.55;;;3.30;;
66542;SDS011;53395;37.360;-122.046;2024-01-16T04:14:39;6.57;;;3.22;;
66542;SDS011;53395;37.360;-122.046;2024-01-16T04:17:24;6.53;;;3.45;;
66542;SDS011;53395;37.360;-122.046;2024-01-16T04:20:09;7.90;;;3.67;;
66542;SDS011;53395;37.360;-122.046;2024-01-16T04:22:53;9.85;;;3.42;;
66542;SDS011;53395;37.360;-122.046;2024-01-16T04:25:38;12.38;;;4.43;;
66542;SDS011;53395;37.360;-122.046;2024-01-16T04:28:23;7.25;;;4.20;;
66542;SDS011;53395;37.360;-122.046;2024-01-16T04:31:08;8.88;;;4.03;;
66542;SDS011;53395;37.360;-122.046;2024-01-16T04:33:52;8.18;;;3.60;;
66542;SDS011;53395;37.360;-122.046;2024-01-16T04:36:37;7.55;;;3.25;;
66542;SDS011;53395;37.360;-122.046;2024-01-16T04:39:21;10.90;;;2.85;;
66542;SDS011;53395;37.360;-122.046;2024-01-16T04:42:08;7.22;;;3.00;;
66542;SDS011;53395;37.360;-122.046;2024-01-16T04:44:53;11.07;;;3.05;;
66542;SDS011;53395;37.360;-122.046;2024-01-16T04:47:38;9.52;;;2.88;;
66542;SDS011;53395;37.360;-122.046;2024-01-16T04:50:23;5.50;;;2.72;;
66542;SDS011;53395;37.360;-122.046;2024-01-16T04:53:07;5.55;;;2.55;;
66542;SDS011;53395;37.360;-122.046;2024-01-16T04:55:52;5.45;;;3.00;;
66542;SDS011;53395;37.360;-122.046;2024-01-16T04:58:36;11.30;;;5.03;;
66542;SDS011;53395;37.360;-122.046;2024-01-16T05:01:21;13.15;;;5.28;;
66542;SDS011;53395;37.360;-122.046;2024-01-16T05:04:05;10.77;;;5.22;;
66542;SDS011;53395;37.360;-122.046;2024-01-16T05:06:54;7.60;;;3.88;;
66542;SDS011;53395;37.360;-122.046;2024-01-16T05:09:39;7.53;;;3.60;;
66542;SDS011;53395;37.360;-122.046;2024-01-16T05:12:23;8.55;;;3.47;;
66542;SDS011;53395;37.360;-122.046;2024-01-16T05:15:08;6.60;;;3.42;;
66542;SDS011;53395;37.360;-122.046;2024-01-16T05:17:55;5.80;;;3.00;;
66542;SDS011;53395;37.360;-122.046;2024-01-16T05:20:39;6.25;;;2.85;;
66542;SDS011;53395;37.360;-122.046;2024-01-16T05:23:24;5.10;;;2.53;;
66542;SDS011;53395;37.360;-122.046;2024-01-16T05:26:08;6.57;;;2.53;;
66542;SDS011;53395;37.360;-122.046;2024-01-16T05:28:53;7.13;;;2.47;;
66542;SDS011;53395;37.360;-122.046;2024-01-16T05:31:41;5.07;;;2.65;;
66542;SDS011;53395;37.360;-122.046;2024-01-16T05:34:25;4.93;;;2.40;;
66542;SDS011;53395;37.360;-122.046;2024-01-16T05:37:11;6.18;;;2.17;;
66542;SDS011;53395;37.360;-122.046;2024-01-16T05:39:56;3.97;;;2.40;;
66542;SDS011;53395;37.360;-122.046;2024-01-16T05:42:41;5.72;;;3.03;;
66542;SDS011;53395;37.360;-122.046;2024-01-16T05:45:25;5.20;;;3.00;;
66542;SDS011;53395;37.360;-122.046;2024-01-16T05:48:10;5.05;;;2.50;;
66542;SDS011;53395;37.360;-122.046;2024-01-16T05:50:55;4.45;;;2.45;;
66542;SDS011;53395;37.360;-122.046;2024-01-16T05:53:39;6.00;;;2.10;;
66542;SDS011;53395;37.360;-122.046;2024-01-16T05:56:23;4.18;;;2.35;;
66542;SDS011;53395;37.360;-122.046;2024-01-16T05:59:08;6.45;;;2.60;;
66542;SDS011;53395;37.360;-122.046;2024-01-16T06:01:52;4.88;;;2.42;;
66542;SDS011;53395;37.360;-122.046;2024-01-16T06:04:37;4.28;;;2.30;;
66542;SDS011;53395;37.360;-122.046;2024-01-16T06:07:21;5.68;;;2.20;;
66542;SDS011;53395;37.360;-122.046;2024-01-16T06:10:06;6.80;;;2.47;;
66542;SDS011;53395;37.360;-122.046;2024-01-16T06:12:51;5.03;;;2.58;;
66542;SDS011;53395;37.360;-122.046;2024-01-16T06:15:35;3.88;;;2.03;;
66542;SDS011;53395;37.360;-122.046;2024-01-16T06:18:19;4.25;;;2.42;;
66542;SDS011;53395;37.360;-122.046;2024-01-16T06:21:04;7.43;;;2.33;;
66542;SDS011;53395;37.360;-122.046;2024-01-16T06:23:48;4.03;;;2.45;;
66542;SDS011;53395;37.360;-122.046;2024-01-16T06:26:33;8.48;;;2.70;;
66542;SDS011;53395;37.360;-122.046;2024-01-16T06:29:17;6.78;;;2.42;;
66542;SDS011;53395;37.360;-122.046;2024-01-16T06:32:02;9.48;;;2.83;;
66542;SDS011;53395;37.360;-122.046;2024-01-16T06:34:47;6.05;;;2.45;;
66542;SDS011;53395;37.360;-122.046;2024-01-16T06:37:31;4.35;;;1.90;;
66542;SDS011;53395;37.360;-122.046;2024-01-16T06:40:16;5.57;;;2.30;;
66542;SDS011;53395;37.360;-122.046;2024-01-16T06:43:00;3.80;;;2.05;;
66542;SDS011;53395;37.360;-122.046;2024-01-16T06:45:44;6.40;;;2.22;;
66542;SDS011;53395;37.360;-122.046;2024-01-16T06:48:28;4.43;;;2.20;;
66542;SDS011;53395;37.360;-122.046;2024-01-16T06:51:13;4.25;;;2.20;;
66542;SDS011;53395;37.360;-122.046;2024-01-16T06:53:59;4.57;;;2.05;;
66542;SDS011;53395;37.360;-122.046;2024-01-16T06:56:43;5.03;;;2.33;;
66542;SDS011;53395;37.360;-122.046;2024-01-16T06:59:28;4.65;;;2.20;;
66542;SDS011;53395;37.360;-122.046;2024-01-16T07:02:13;5.32;;;2.45;;
66542;SDS011;53395;37.360;-122.046;2024-01-16T07:04:57;5.65;;;2.13;;
66542;SDS011;53395;37.360;-122.046;2024-01-16T07:07:42;4.20;;;2.33;;
66542;SDS011;53395;37.360;-122.046;2024-01-16T07:10:26;4.30;;;2.40;;
66542;SDS011;53395;37.360;-122.046;2024-01-16T07:13:12;4.70;;;2.47;;
66542;SDS011;53395;37.360;-122.046;2024-01-16T07:15:58;5.30;;;2.33;;
66542;SDS011;53395;37.360;-122.046;2024-01-16T07:18:42;3.72;;;2.08;;
66542;SDS011;53395;37.360;-122.046;2024-01-16T07:21:27;6.07;;;2.30;;
66542;SDS011;53395;37.360;-122.046;2024-01-16T07:24:12;3.95;;;2.10;;
66542;SDS011;53395;37.360;-122.046;2024-01-16T07:26:57;3.28;;;1.77;;
66542;SDS011;53395;37.360;-122.046;2024-01-16T07:29:42;4.50;;;2.33;;
66542;SDS011;53395;37.360;-122.046;2024-01-16T07:32:26;7.30;;;2.28;;
66542;SDS011;53395;37.360;-122.046;2024-01-16T07:35:11;7.03;;;2.45;;
66542;SDS011;53395;37.360;-122.046;2024-01-16T07:37:55;5.20;;;2.47;;
66542;SDS011;53395;37.360;-122.046;2024-01-16T07:40:40;6.05;;;2.58;;
66542;SDS011;53395;37.360;-122.046;2024-01-16T07:43:24;4.72;;;2.30;;
66542;SDS011;53395;37.360;-122.046;2024-01-16T07:46:09;5.82;;;3.97;;
66542;SDS011;53395;37.360;-122.046;2024-01-16T07:48:53;10.50;;;6.22;;
66542;SDS011;53395;37.360;-122.046;2024-01-16T07:51:38;10.45;;;6.35;;
66542;SDS011;53395;37.360;-122.046;2024-01-16T07:54:22;11.63;;;6.07;;
66542;SDS011;53395;37.360;-122.046;2024-01-16T07:57:07;10.75;;;5.65;;
66542;SDS011;53395;37.360;-122.046;2024-01-16T07:59:52;9.20;;;5.25;;
66542;SDS011;53395;37.360;-122.046;2024-01-16T08:02:36;5.90;;;2.95;;
66542;SDS011;53395;37.360;-122.046;2024-01-16T08:05:21;5.10;;;2.90;;
66542;SDS011;53395;37.360;-122.046;2024-01-16T08:08:09;4.68;;;2.47;;
66542;SDS011;53395;37.360;-122.046;2024-01-16T08:10:54;5.15;;;2.45;;
66542;SDS011;53395;37.360;-122.046;2024-01-16T08:13:40;5.18;;;2.92;;
66542;SDS011;53395;37.360;-122.046;2024-01-16T08:16:24;6.65;;;2.80;;
66542;SDS011;53395;37.360;-122.046;2024-01-16T08:19:09;4.85;;;2.70;;
66542;SDS011;53395;37.360;-122.046;2024-01-16T08:21:54;5.57;;;2.67;;
66542;SDS011;53395;37.360;-122.046;2024-01-16T08:24:38;4.75;;;2.65;;
66542;SDS011;53395;37.360;-122.046;2024-01-16T08:27:23;5.68;;;2.55;;
66542;SDS011;53395;37.360;-122.046;2024-01-16T08:30:07;5.32;;;2.63;;
66542;SDS011;53395;37.360;-122.046;2024-01-16T08:32:52;4.53;;;2.67;;
66542;SDS011;53395;37.360;-122.046;2024-01-16T08:35:36;5.28;;;2.65;;
66542;SDS011;53395;37.360;-122.046;2024-01-16T08:38:20;6.05;;;3.03;;
66542;SDS011;53395;37.360;-122.046;2024-01-16T08:41:05;5.00;;;2.75;;
66542;SDS011;53395;37.360;-122.046;2024-01-16T08:43:52;7.95;;;3.15;;
66542;SDS011;53395;37.360;-122.046;2024-01-16T08:46:38;4.82;;;2.55;;
66542;SDS011;53395;37.360;-122.046;2024-01-16T08:49:22;6.70;;;2.55;;
66542;SDS011;53395;37.360;-122.046;2024-01-16T08:52:06;3.75;;;2.30;;
66542;SDS011;53395;37.360;-122.046;2024-01-16T08:54:50;5.80;;;2.45;;
66542;SDS011;53395;37.360;-122.046;2024-01-16T08:57:38;3.80;;;2.20;;
66542;SDS011;53395;37.360;-122.046;2024-01-16T09:00:23;4.32;;;2.25;;
66542;SDS011;53395;37.360;-122.046;2024-01-16T09:03:07;4.93;;;2.53;;
66542;SDS011;53395;37.360;-122.046;2024-01-16T09:05:52;5.03;;;2.33;;
66542;SDS011;53395;37.360;-122.046;2024-01-16T09:08:36;5.50;;;2.50;;
66542;SDS011;53395;37.360;-122.046;2024-01-16T09:11:21;5.45;;;2.15;;
66542;SDS011;53395;37.360;-122.046;2024-01-16T09:14:05;5.10;;;2.60;;
66542;SDS011;53395;37.360;-122.046;2024-01-16T09:16:50;5.43;;;2.42;;
66542;SDS011;53395;37.360;-122.046;2024-01-16T09:19:34;5.97;;;2.90;;
66542;SDS011;53395;37.360;-122.046;2024-01-16T09:22:19;4.95;;;2.25;;
66542;SDS011;53395;37.360;-122.046;2024-01-16T09:25:03;4.15;;;2.25;;
66542;SDS011;53395;37.360;-122.046;2024-01-16T09:27:49;6.05;;;2.38;;
66542;SDS011;53395;37.360;-122.046;2024-01-16T09:30:34;5.45;;;2.45;;
66542;SDS011;53395;37.360;-122.046;2024-01-16T09:33:19;5.35;;;2.35;;
66542;SDS011;53395;37.360;-122.046;2024-01-16T09:36:03;4.57;;;2.67;;
66542;SDS011;53395;37.360;-122.046;2024-01-16T09:38:48;7.32;;;2.58;;
66542;SDS011;53395;37.360;-122.046;2024-01-16T09:41:32;6.32;;;2.50;;
66542;SDS011;53395;37.360;-122.046;2024-01-16T09:44:18;6.10;;;3.20;;
66542;SDS011;53395;37.360;-122.046;2024-01-16T09:47:03;6.38;;;3.70;;
66542;SDS011;53395;37.360;-122.046;2024-01-16T09:49:47;8.00;;;3.33;;
66542;SDS011;53395;37.360;-122.046;2024-01-16T09:52:32;7.85;;;2.55;;
66542;SDS011;53395;37.360;-122.046;2024-01-16T09:55:17;4.30;;;2.58;;
66542;SDS011;53395;37.360;-122.046;2024-01-16T09:58:01;4.57;;;2.22;;
66542;SDS011;53395;37.360;-122.046;2024-01-16T10:00:47;6.45;;;2.88;;
66542;SDS011;53395;37.360;-122.046;2024-01-16T10:03:34;5.90;;;2.70;;
66542;SDS011;53395;37.360;-122.046;2024-01-16T10:06:19;6.07;;;2.95;;
66542;SDS011;53395;37.360;-122.046;2024-01-16T10:09:04;5.68;;;2.80;;
66542;SDS011;53395;37.360;-122.046;2024-01-16T10:11:48;5.18;;;2.53;;
66542;SDS011;53395;37.360;-122.046;2024-01-16T10:14:34;4.15;;;2.50;;
66542;SDS011;53395;37.360;-122.046;2024-01-16T10:17:19;5.43;;;2.50;;
66542;SDS011;53395;37.360;-122.046;2024-01-16T10:20:03;6.18;;;2.45;;
66542;SDS011;53395;37.360;-122.046;2024-01-16T10:22:53;5.43;;;2.38;;
66542;SDS011;53395;37.360;-122.046;2024-01-16T10:25:38;4.70;;;2.38;;
66542;SDS011;53395;37.360;-122.046;2024-01-16T10:28:22;4.32;;;2.17;;
66542;SDS011;53395;37.360;-122.046;2024-01-16T10:31:07;5.53;;;2.08;;
66542;SDS011;53395;37.360;-122.046;2024-01-16T10:33:52;7.95;;;2.30;;
66542;SDS011;53395;37.360;-122.046;2024-01-16T10:36:36;3.83;;;2.08;;
66542;SDS011;53395;37.360;-122.046;2024-01-16T10:39:21;4.80;;;2.42;;
66542;SDS011;53395;37.360;-122.046;2024-01-16T10:42:05;4.45;;;2.17;;
66542;SDS011;53395;37.360;-122.046;2024-01-16T10:44:53;3.85;;;2.10;;
66542;SDS011;53395;37.360;-122.046;2024-01-16T10:47:39;3.33;;;1.92;;
66542;SDS011;53395;37.360;-122.046;2024-01-16T10:50:23;4.10;;;2.22;;
66542;SDS011;53395;37.360;-122.046;2024-01-16T10:53:08;3.90;;;2.17;;
66542;SDS011;53395;37.360;-122.046;2024-01-16T10:55:52;6.93;;;2.50;;
66542;SDS011;53395;37.360;-122.046;2024-01-16T10:58:38;5.80;;;2.53;;
66542;SDS011;53395;37.360;-122.046;2024-01-16T11:04:07;4.00;;;2.08;;
66542;SDS011;53395;37.360;-122.046;2024-01-16T11:06:53;4.75;;;2.38;;
66542;SDS011;53395;37.360;-122.046;2024-01-16T11:09:38;4.90;;;2.40;;
66542;SDS011;53395;37.360;-122.046;2024-01-16T11:12:24;4.60;;;2.00;;
66542;SDS011;53395;37.360;-122.046;2024-01-16T11:15:10;3.80;;;2.30;;
66542;SDS011;53395;37.360;-122.046;2024-01-16T11:21:25;6.38;;;2.33;;
66542;SDS011;53395;37.360;-122.046;2024-01-16T11:24:11;5.40;;;2.28;;
66542;SDS011;53395;37.360;-122.046;2024-01-16T11:26:55;4.60;;;2.38;;
66542;SDS011;53395;37.360;-122.046;2024-01-16T11:29:41;5.57;;;2.80;;
66542;SDS011;53395;37.360;-122.046;2024-01-16T11:32:41;6.53;;;2.70;;
66542;SDS011;53395;37.360;-122.046;2024-01-16T11:35:35;7.50;;;2.70;;
66542;SDS011;53395;37.360;-122.046;2024-01-16T11:38:24;8.88;;;3.13;;
66542;SDS011;53395;37.360;-122.046;2024-01-16T11:41:11;5.68;;;2.58;;
66542;SDS011;53395;37.360;-122.046;2024-01-16T11:47:21;4.82;;;2.50;;
66542;SDS011;53395;37.360;-122.046;2024-01-16T11:50:10;7.07;;;2.63;;
66542;SDS011;53395;37.360;-122.046;2024-01-16T11:52:55;4.57;;;2.45;;
66542;SDS011;53395;37.360;-122.046;2024-01-16T11:59:08;6.93;;;2.40;;
66542;SDS011;53395;37.360;-122.046;2024-01-16T12:01:57;4.95;;;2.28;;
66542;SDS011;53395;37.360;-122.046;2024-01-16T12:04:43;4.22;;;2.47;;
66542;SDS011;53395;37.360;-122.046;2024-01-16T12:07:43;4.70;;;2.60;;
66542;SDS011;53395;37.360;-122.046;2024-01-16T12:10:27;4.75;;;2.28;;
66542;SDS011;53395;37.360;-122.046;2024-01-16T12:13:12;4.65;;;2.42;;
66542;SDS011;53395;37.360;-122.046;2024-01-16T12:16:00;5.95;;;2.42;;
66542;SDS011;53395;37.360;-122.046;2024-01-16T12:18:44;4.80;;;2.40;;
66542;SDS011;53395;37.360;-122.046;2024-01-16T12:21:29;4.50;;;2.58;;
66542;SDS011;53395;37.360;-122.046;2024-01-16T12:24:13;4.38;;;2.75;;
66542;SDS011;53395;37.360;-122.046;2024-01-16T12:26:58;7.10;;;3.15;;
66542;SDS011;53395;37.360;-122.046;2024-01-16T12:29:43;6.55;;;2.70;;
66542;SDS011;53395;37.360;-122.046;2024-01-16T12:32:27;4.68;;;2.20;;
66542;SDS011;53395;37.360;-122.046;2024-01-16T12:35:12;3.92;;;2.17;;
66542;SDS011;53395;37.360;-122.046;2024-01-16T12:37:57;4.78;;;2.15;;
66542;SDS011;53395;37.360;-122.046;2024-01-16T12:40:46;7.88;;;2.90;;
66542;SDS011;53395;37.360;-122.046;2024-01-16T12:43:32;5.75;;;2.30;;
66542;SDS011;53395;37.360;-122.046;2024-01-16T12:46:17;4.72;;;2.45;;
66542;SDS011;53395;37.360;-122.046;2024-01-16T12:51:48;3.78;;;2.50;;
66542;SDS011;53395;37.360;-122.046;2024-01-16T12:54:33;5.50;;;2.40;;
66542;SDS011;53395;37.360;-122.046;2024-01-16T12:57:18;5.57;;;2.60;;
66542;SDS011;53395;37.360;-122.046;2024-01-16T13:00:22;6.40;;;3.20;;
66542;SDS011;53395;37.360;-122.046;2024-01-16T13:03:06;4.25;;;2.78;;
66542;SDS011;53395;37.360;-122.046;2024-01-16T13:05:58;6.22;;;3.20;;
66542;SDS011;53395;37.360;-122.046;2024-01-16T13:08:43;7.95;;;3.22;;
66542;SDS011;53395;37.360;-122.046;2024-01-16T13:11:28;6.13;;;3.22;;
66542;SDS011;53395;37.360;-122.046;2024-01-16T13:14:12;7.25;;;3.55;;
66542;SDS011;53395;37.360;-122.046;2024-01-16T13:16:56;9.75;;;4.05;;
66542;SDS011;53395;37.360;-122.046;2024-01-16T13:19:41;6.25;;;3.45;;
66542;SDS011;53395;37.360;-122.046;2024-01-16T13:22:25;6.90;;;3.40;;
66542;SDS011;53395;37.360;-122.046;2024-01-16T13:25:10;8.43;;;3.65;;
66542;SDS011;53395;37.360;-122.046;2024-01-16T13:27:55;6.25;;;3.40;;
66542;SDS011;53395;37.360;-122.046;2024-01-16T13:30:40;7.88;;;3.88;;
66542;SDS011;53395;37.360;-122.046;2024-01-16T13:33:25;8.73;;;3.60;;
66542;SDS011;53395;37.360;-122.046;2024-01-16T13:36:12;6.82;;;3.78;;
66542;SDS011;53395;37.360;-122.046;2024-01-16T13:38:57;7.55;;;3.13;;
66542;SDS011;53395;37.360;-122.046;2024-01-16T13:41:42;7.13;;;4.60;;
66542;SDS011;53395;37.360;-122.046;2024-01-16T13:44:26;6.28;;;4.07;;
66542;SDS011;53395;37.360;-122.046;2024-01-16T13:47:11;6.93;;;4.20;;
66542;SDS011;53395;37.360;-122.046;2024-01-16T13:49:56;7.82;;;3.72;;
66542;SDS011;53395;37.360;-122.046;2024-01-16T13:52:41;6.60;;;3.85;;
66542;SDS011;53395;37.360;-122.046;2024-01-16T13:55:25;6.95;;;3.55;;
66542;SDS011;53395;37.360;-122.046;2024-01-16T13:58:10;9.93;;;4.13;;
66542;SDS011;53395;37.360;-122.046;2024-01-16T14:00:55;7.85;;;3.97;;
66542;SDS011;53395;37.360;-122.046;2024-01-16T14:03:40;8.75;;;4.22;;
66542;SDS011;53395;37.360;-122.046;2024-01-16T14:06:27;9.52;;;3.92;;
66542;SDS011;53395;37.360;-122.046;2024-01-16T14:09:11;7.63;;;4.10;;
66542;SDS011;53395;37.360;-122.046;2024-01-16T14:11:57;8.82;;;4.60;;
66542;SDS011;53395;37.360;-122.046;2024-01-16T14:14:41;7.05;;;4.53;;
66542;SDS011;53395;37.360;-122.046;2024-01-16T14:17:26;8.38;;;4.25;;
66542;SDS011;53395;37.360;-122.046;2024-01-16T14:20:12;7.82;;;4.47;;
66542;SDS011;53395;37.360;-122.046;2024-01-16T14:22:56;8.57;;;4.38;;
66542;SDS011;53395;37.360;-122.046;2024-01-16T14:25:41;7.22;;;4.22;;
66542;SDS011;53395;37.360;-122.046;2024-01-16T14:28:26;10.48;;;4.38;;
66542;SDS011;53395;37.360;-122.046;2024-01-16T14:31:11;9.55;;;4.63;;
66542;SDS011;53395;37.360;-122.046;2024-01-16T14:33:55;7.30;;;4.43;;
66542;SDS011;53395;37.360;-122.046;2024-01-16T14:36:42;7.93;;;4.82;;
66542;SDS011;53395;37.360;-122.046;2024-01-16T14:39:27;8.95;;;4.78;;
66542;SDS011;53395;37.360;-122.046;2024-01-16T14:42:14;9.30;;;4.60;;
66542;SDS011;53395;37.360;-122.046;2024-01-16T14:44:59;8.05;;;4.78;;
66542;SDS011;53395;37.360;-122.046;2024-01-16T14:47:44;9.75;;;4.47;;
66542;SDS011;53395;37.360;-122.046;2024-01-16T14:50:29;12.48;;;4.90;;
66542;SDS011;53395;37.360;-122.046;2024-01-16T14:53:14;7.57;;;4.22;;
66542;SDS011;53395;37.360;-122.046;2024-01-16T14:55:58;8.48;;;4.93;;
66542;SDS011;53395;37.360;-122.046;2024-01-16T14:58:43;8.00;;;4.88;;
66542;SDS011;53395;37.360;-122.046;2024-01-16T15:01:28;7.95;;;4.32;;
66542;SDS011;53395;37.360;-122.046;2024-01-16T15:04:13;13.82;;;5.40;;
66542;SDS011;53395;37.360;-122.046;2024-01-16T15:06:58;10.18;;;5.80;;
66542;SDS011;53395;37.360;-122.046;2024-01-16T15:09:42;9.90;;;5.30;;
66542;SDS011;53395;37.360;-122.046;2024-01-16T15:12:27;8.95;;;4.93;;
66542;SDS011;53395;37.360;-122.046;2024-01-16T15:15:13;10.23;;;5.10;;
66542;SDS011;53395;37.360;-122.046;2024-01-16T15:17:59;8.18;;;5.13;;
66542;SDS011;53395;37.360;-122.046;2024-01-16T15:20:43;8.68;;;4.60;;
66542;SDS011;53395;37.360;-122.046;2024-01-16T15:23:27;10.98;;;5.43;;
66542;SDS011;53395;37.360;-122.046;2024-01-16T15:26:12;9.93;;;5.38;;
66542;SDS011;53395;37.360;-122.046;2024-01-16T15:29:02;11.38;;;5.38;;
66542;SDS011;53395;37.360;-122.046;2024-01-16T15:31:47;9.02;;;5.38;;
66542;SDS011;53395;37.360;-122.046;2024-01-16T15:34:32;10.27;;;5.60;;
66542;SDS011;53395;37.360;-122.046;2024-01-16T15:37:16;8.90;;;5.43;;
66542;SDS011;53395;37.360;-122.046;2024-01-16T15:40:01;11.00;;;5.47;;
66542;SDS011;53395;37.360;-122.046;2024-01-16T15:42:46;9.65;;;6.20;;
66542;SDS011;53395;37.360;-122.046;2024-01-16T15:45:31;10.38;;;6.07;;
66542;SDS011;53395;37.360;-122.046;2024-01-16T15:48:15;12.35;;;6.32;;
66542;SDS011;53395;37.360;-122.046;2024-01-16T15:50:59;9.00;;;5.20;;
66542;SDS011;53395;37.360;-122.046;2024-01-16T15:53:45;12.52;;;6.10;;
66542;SDS011;53395;37.360;-122.046;2024-01-16T15:56:30;11.55;;;6.15;;
66542;SDS011;53395;37.360;-122.046;2024-01-16T15:59:14;12.43;;;6.60;;
66542;SDS011;53395;37.360;-122.046;2024-01-16T16:01:59;13.95;;;6.78;;
66542;SDS011;53395;37.360;-122.046;2024-01-16T16:04:43;14.55;;;7.53;;
66542;SDS011;53395;37.360;-122.046;2024-01-16T16:07:28;15.90;;;8.02;;